メインページ
METAR-TAF:

METAR-TAF

空港 :

キュラソー島, オランダ領アンティル

ハト国際空港

緯度: 12-12N, 経度: 068-58W, 海抜: 9m

現時点の気象観測

当レポートは33分前の15:00(UTC)に作成
の風 14kt
気温 31°C
湿度 66%
気圧 1015 hPa
視程10km以上
高度2000ftの雲はほとんどない

METAR: TNCC 251500Z 10014KT 9999 FEW020 31/24 Q1015 NOSIG

時間: 11:33 (15:33 UTC)

予報

当レポートは5時間33分前の10:00(UTC)に作成
予報は25日の 12時(UTC)から 26日の 12時(UTC)まで有効
の風 15kt
視程10km以上
高度2000ftの雲は散在している

TAF: TNCC 251000Z 2512/2612 10015KT 9999 SCT020

4,000以上の空港の気象観測と天気予報(METAR報とTAF報)

利用可能な観測所は地図上に黄色い丸と赤い丸で示す。

丸の上にカーソルを重ねると観測所名を参照できる。

次にクリックすると気象観測と天気予報を参照できる。

マップの切り替え:黒色「×」印の緑ボタンをクリックして拡大、「-」印の緑ボタンをクリックして縮小、緑色の三角印をクリックして隣りの地図に切り替え


METAR-TAF: